Airfield :
LOGIN :

Register | Disclaimer

   EN    FR    IT 

 










Legend :    VFR   Marginal VFR   IFR   Intensive IFR   Very Intensive IFR
Visi :
Ceiling :
>= 8 km
>= 3000ft
5 to 8 km
1000 to 3000 ft
1500m to 5 km
500 to 1000 ft
800 to 1500m
200 to 500 ft
< 800m
< 200 ft
Symbols :   Thunderstorms  Fog  Heavy snow  Heavy precipitations  Wind > 20 kt
SIGMETs :     Misc.  Thunderstorms  Icing  Turbulence  Mountain Waves  Volcanic Ashes






- Airport Elevation : 13 ft
- IATA code : CAG


LIEE - Cagliari Elmas

CURRENT METAR :
  • 250750Z 33008KT 310V010 CAVOK 24/15 Q1011

EXPIRED METARs :
  • 250720Z 32007KT 300V360 CAVOK 23/16 Q1012
  • 250650Z 36005KT 320V030 CAVOK 22/16 Q1011
  • 250620Z 34006KT CAVOK 20/16 Q1011
  • 250550Z 34006KT CAVOK 20/16 Q1011
  • 250520Z 34005KT CAVOK 18/15 Q1011
  • 250450Z 35003KT CAVOK 17/15 Q1011
  • 250420Z 34006KT CAVOK 17/15 Q1011
  • 250350Z 35005KT CAVOK 17/15 Q1011
  • 250320Z 33003KT 280V010 CAVOK 18/15 Q1011

TAF TAF LIEE
Valid from the 25 at 06:00 until the 26 at 06:00 UTC


250500Z 2506/2606 VRB05KT 9999 FEW040
BECMG 2510/2512 33013KT
BECMG 2517/2519 VRB05KT



MET'MAP, your aeronautical weather chart ! - Copyright ORBIFLY December 2007 - Disclaimer

ORBIFLY MET'MAP TEAM :

Programming & Development : Alexandra Zaïnal
Original concept : Baudouin d'Aumeries
Technical & hardware support : Manuel Goepfert
Assistance : Marc-Olivier Méhu




SOURCES & CREDITS :

   NOAA